Time;durP1;ratioP1;P1;durP2;ratioP2;P2;SDS_P1;SDS_P2;PMS_P1;PMS_P2;Temp;Humidity;BMP_temperature;BMP_pressure;BME280_temperature;BME280_humidity;BME280_pressure;Samples;Min_cycle;Max_cycle;Signal;HPM_P1;HPM_P2
2023/11/26 00:04:15;;;;;;;8.00;3.25;;;;;;;0.44;93.05;100232.50;10020883;29;20133;-77
2023/11/26 00:09:22;;;;;;;8.07;3.53;;;;;;;0.24;93.88;100236.84;10037516;29;21287;-77
2023/11/26 00:14:25;;;;;;;11.07;4.22;;;;;;;0.20;95.12;100242.31;10036174;29;20060;-78
2023/11/26 00:19:29;;;;;;;14.82;6.43;;;;;;;0.27;95.42;100244.63;10021774;29;20056;-77
2023/11/26 00:24:33;;;;;;;10.55;5.15;;;;;;;0.29;95.84;100241.94;10034912;29;20517;-77
2023/11/26 00:29:40;;;;;;;11.30;4.40;;;;;;;0.29;95.88;100242.78;10038932;29;20385;-77
2023/11/26 00:34:43;;;;;;;9.80;3.63;;;;;;;0.25;95.36;100235.03;10010006;29;20049;-77
2023/11/26 00:39:48;;;;;;;9.30;3.90;;;;;;;0.14;95.54;100244.28;10025639;29;20178;-77
2023/11/26 00:44:51;;;;;;;9.70;4.70;;;;;;;-0.07;95.49;100234.56;10022101;29;21766;-77
2023/11/26 00:49:55;;;;;;;11.30;4.72;;;;;;;-0.21;96.10;100229.84;10043409;29;20056;-77
2023/11/26 00:55:00;;;;;;;9.00;5.15;;;;;;;-0.23;96.62;100244.00;10024301;29;20521;-77
2023/11/26 01:00:10;;;;;;;10.02;5.10;;;;;;;-0.11;96.98;100248.78;10027419;29;20049;-77
2023/11/26 01:05:13;;;;;;;12.85;6.07;;;;;;;0.04;98.08;100250.00;10024149;29;20517;-77
2023/11/26 01:10:18;;;;;;;13.05;6.47;;;;;;;0.17;98.23;100248.59;10044218;29;20195;-77
2023/11/26 01:15:21;;;;;;;13.77;6.65;;;;;;;0.15;97.87;100248.63;10038100;29;20065;-77
2023/11/26 01:20:24;;;;;;;11.13;5.80;;;;;;;0.15;97.93;100253.91;10028251;29;20097;-77
2023/11/26 01:25:28;;;;;;;12.80;6.80;;;;;;;0.15;97.97;100264.47;10017520;29;20800;-76
2023/11/26 01:30:32;;;;;;;11.95;6.40;;;;;;;0.14;97.85;100276.00;10025977;29;20067;-77
2023/11/26 01:35:35;;;;;;;13.80;6.07;;;;;;;0.01;97.53;100271.25;10012574;29;20060;-76
2023/11/26 01:40:40;;;;;;;11.77;6.68;;;;;;;-0.06;98.20;100271.47;10029611;29;20784;-77
2023/11/26 01:45:43;;;;;;;10.95;5.78;;;;;;;-0.03;98.14;100275.75;10040211;29;20091;-77
2023/11/26 01:50:47;;;;;;;14.73;7.30;;;;;;;-0.09;98.24;100276.00;10025819;29;20547;-78
2023/11/26 01:55:52;;;;;;;14.10;6.57;;;;;;;-0.09;98.10;100276.00;10025115;29;20053;-76
2023/11/26 02:00:56;;;;;;;19.83;7.35;;;;;;;-0.02;98.62;100277.50;10026221;29;20049;-77
2023/11/26 02:05:59;;;;;;;12.70;6.28;;;;;;;0.09;98.88;100280.59;10039373;29;20208;-76
2023/11/26 02:11:04;;;;;;;19.95;7.70;;;;;;;0.08;98.33;100276.25;10032918;29;20052;-76
2023/11/26 02:16:08;;;;;;;17.42;8.38;;;;;;;0.04;98.21;100276.41;10025710;29;20083;-78
2023/11/26 02:21:11;;;;;;;14.35;7.47;;;;;;;0.09;99.19;100277.94;10057251;29;20057;-78
2023/11/26 02:26:18;;;;;;;20.05;8.73;;;;;;;0.16;98.69;100279.44;10019466;29;20057;-78
2023/11/26 02:31:21;;;;;;;18.75;9.13;;;;;;;0.19;98.91;100277.56;10022832;29;20057;-78
2023/11/26 02:36:25;;;;;;;14.38;8.15;;;;;;;0.20;98.79;100280.16;10019878;29;20074;-76
2023/11/26 02:41:31;;;;;;;18.98;8.13;;;;;;;0.08;97.54;100281.53;10014496;29;20050;-78
2023/11/26 02:46:34;;;;;;;14.88;8.40;;;;;;;0.01;98.31;100272.09;10043130;29;20134;-77
2023/11/26 02:51:37;;;;;;;13.43;8.25;;;;;;;0.08;98.88;100267.41;10022049;29;20405;-77
2023/11/26 02:56:44;;;;;;;23.17;10.52;;;;;;;0.20;98.86;100251.09;10016578;29;20049;-77
2023/11/26 03:01:49;;;;;;;21.30;10.40;;;;;;;0.34;99.31;100263.75;10014433;29;20045;-77
2023/11/26 03:06:53;;;;;;;17.52;10.48;;;;;;;0.37;98.87;100266.28;10033332;29;20088;-77
2023/11/26 03:17:18;;;;;;;17.88;10.30;;;;;;;0.44;98.85;100265.09;10050087;29;20406;-77
2023/11/26 03:22:21;;;;;;;21.20;10.95;;;;;;;0.32;98.47;100262.94;10017685;29;20057;-78
2023/11/26 03:27:25;;;;;;;18.55;11.20;;;;;;;0.43;98.62;100266.00;10041888;29;21186;-78
2023/11/26 03:32:28;;;;;;;21.38;10.52;;;;;;;0.46;98.69;100270.31;10052036;29;20069;-77
2023/11/26 03:37:33;;;;;;;21.80;11.13;;;;;;;0.43;98.12;100276.59;10030786;29;20064;-78
2023/11/26 03:42:37;;;;;;;21.48;12.20;;;;;;;0.44;98.25;100277.44;10051236;29;20053;-78
2023/11/26 03:47:41;;;;;;;20.65;11.05;;;;;;;0.43;97.89;100283.66;10045013;29;20059;-78
2023/11/26 03:52:44;;;;;;;20.73;11.18;;;;;;;0.46;97.54;100283.53;10028813;29;20049;-78
2023/11/26 03:57:48;;;;;;;17.10;9.98;;;;;;;0.38;97.54;100276.78;10017468;29;20057;-77
2023/11/26 04:02:51;;;;;;;19.58;10.60;;;;;;;0.45;97.85;100277.38;10052679;29;21297;-78
2023/11/26 04:07:54;;;;;;;18.92;9.98;;;;;;;0.45;97.60;100272.09;10026422;29;20045;-77
2023/11/26 04:12:59;;;;;;;20.77;10.52;;;;;;;0.41;97.83;100267.84;10050156;29;20053;-77
2023/11/26 04:18:02;;;;;;;22.77;11.43;;;;;;;0.40;98.61;100284.63;10031801;29;20053;-77
2023/11/26 04:23:05;;;;;;;18.13;10.55;;;;;;;0.28;100.00;100287.78;10041735;29;20048;-77
2023/11/26 04:28:09;;;;;;;21.92;11.38;;;;;;;0.25;100.00;100296.69;10044674;29;20473;-77
2023/11/26 04:33:13;;;;;;;23.63;11.63;;;;;;;0.47;100.00;100296.69;10036982;29;20053;-78
2023/11/26 04:38:16;;;;;;;20.52;10.50;;;;;;;0.44;100.00;100294.19;10031027;29;20141;-78
2023/11/26 04:43:21;;;;;;;21.55;11.60;;;;;;;0.54;100.00;100294.66;10042823;29;20063;-77
2023/11/26 04:48:24;;;;;;;24.98;11.88;;;;;;;0.68;100.00;100307.31;10044262;29;20107;-78
2023/11/26 04:53:27;;;;;;;20.25;10.65;;;;;;;0.70;100.00;100302.81;10042748;29;20053;-77
2023/11/26 04:58:32;;;;;;;26.33;11.32;;;;;;;0.44;100.00;100286.25;10047049;29;20129;-77
2023/11/26 05:03:35;;;;;;;20.23;7.93;;;;;;;0.21;100.00;100300.38;10037043;29;20051;-77
2023/11/26 05:08:38;;;;;;;11.05;6.38;;;;;;;0.25;100.00;100301.97;10036466;29;20183;-78
2023/11/26 05:13:43;;;;;;;26.15;13.07;;;;;;;0.24;100.00;100307.31;10053262;29;20055;-78
2023/11/26 05:18:46;;;;;;;25.77;12.13;;;;;;;0.36;100.00;100312.97;10042025;29;20057;-78
2023/11/26 05:23:49;;;;;;;28.98;14.70;;;;;;;0.58;100.00;100312.13;10043517;29;20624;-78
2023/11/26 05:28:53;;;;;;;27.58;13.48;;;;;;;0.48;100.00;100306.34;10040820;29;20053;-78
2023/11/26 05:33:56;;;;;;;28.08;13.73;;;;;;;0.73;100.00;100302.69;10040996;29;20041;-78
2023/11/26 05:38:59;;;;;;;29.70;13.82;;;;;;;0.91;100.00;100298.44;10021061;29;21144;-79
2023/11/26 05:44:04;;;;;;;30.40;14.70;;;;;;;0.94;100.00;100306.22;10018346;29;20045;-78
2023/11/26 05:49:07;;;;;;;27.50;14.27;;;;;;;0.96;100.00;100310.53;9993910;29;20160;-77
2023/11/26 05:54:10;;;;;;;39.13;16.48;;;;;;;0.97;100.00;100316.69;10017415;29;20045;-77
2023/11/26 05:59:15;;;;;;;37.28;16.02;;;;;;;1.00;100.00;100313.91;10039012;29;20053;-78
2023/11/26 06:04:18;;;;;;;32.17;14.98;;;;;;;1.15;100.00;100301.78;10052379;29;20060;-78
2023/11/26 06:09:21;;;;;;;31.42;15.10;;;;;;;1.11;100.00;100314.28;10046894;29;20053;-78
2023/11/26 06:14:26;;;;;;;31.63;16.40;;;;;;;1.24;100.00;100302.25;10056640;29;20067;-79
2023/11/26 06:19:29;;;;;;;41.35;17.40;;;;;;;1.27;100.00;100302.13;10036176;29;20049;-78
2023/11/26 06:24:32;;;;;;;32.70;17.17;;;;;;;1.26;100.00;100295.13;10062958;29;20056;-78
2023/11/26 06:29:37;;;;;;;37.85;16.35;;;;;;;1.27;100.00;100293.31;10060857;29;20053;-77
2023/11/26 06:34:45;;;;;;;37.55;16.30;;;;;;;1.21;100.00;100289.16;10034786;29;20068;-76
2023/11/26 06:39:48;;;;;;;36.78;15.82;;;;;;;1.30;100.00;100279.97;10029098;29;20421;-76
2023/11/26 06:44:53;;;;;;;35.35;15.77;;;;;;;1.37;100.00;100278.78;10041165;29;20060;-78
2023/11/26 06:49:57;;;;;;;38.35;17.75;;;;;;;1.37;100.00;100293.75;10040246;29;20057;-78
2023/11/26 06:55:00;;;;;;;37.85;16.98;;;;;;;1.36;100.00;100300.84;10047290;29;20056;-77
2023/11/26 07:00:06;;;;;;;29.35;16.58;;;;;;;1.35;100.00;100285.91;10057713;29;20500;-79
2023/11/26 07:05:10;;;;;;;35.30;17.42;;;;;;;1.30;100.00;100290.53;10048422;29;20060;-77
2023/11/26 07:10:13;;;;;;;31.50;17.77;;;;;;;1.30;100.00;100274.66;10047627;29;20101;-78
2023/11/26 07:15:17;;;;;;;36.50;18.95;;;;;;;1.23;100.00;100279.34;10031686;29;20575;-77
2023/11/26 07:20:21;;;;;;;31.50;17.00;;;;;;;1.20;100.00;100283.94;10024231;29;20049;-79
2023/11/26 07:25:24;;;;;;;33.22;17.25;;;;;;;1.27;100.00;100290.69;10056524;29;20678;-78
2023/11/26 07:30:28;;;;;;;40.17;18.90;;;;;;;1.69;100.00;100282.59;10048610;29;20058;-78
2023/11/26 07:35:31;;;;;;;45.65;24.08;;;;;;;2.89;100.00;100268.03;10056124;29;20128;-77
2023/11/26 07:40:35;;;;;;;53.35;27.83;;;;;;;3.02;100.00;100267.34;10028464;29;20045;-78
2023/11/26 07:45:40;;;;;;;32.88;14.98;;;;;;;3.25;100.00;100265.28;10031257;29;20045;-77
2023/11/26 07:50:43;;;;;;;18.17;11.32;;;;;;;3.14;99.78;100260.53;10054979;29;21284;-79
2023/11/26 07:55:46;;;;;;;24.17;13.45;;;;;;;2.52;100.00;100259.22;10057978;29;20045;-78
2023/11/26 08:00:51;;;;;;;29.38;14.43;;;;;;;2.30;100.00;100262.06;10049388;29;20064;-78
2023/11/26 08:05:54;;;;;;;28.58;14.38;;;;;;;2.08;100.00;100256.94;10027863;29;20060;-77
2023/11/26 08:10:58;;;;;;;30.45;15.00;;;;;;;2.08;100.00;100260.44;10052703;29;20053;-79
2023/11/26 08:16:07;;;;;;;30.70;15.57;;;;;;;2.13;100.00;100260.25;10021625;29;21854;-76
2023/11/26 08:21:10;;;;;;;34.30;16.10;;;;;;;2.07;100.00;100258.75;10054549;29;20065;-80
2023/11/26 08:26:15;;;;;;;37.00;18.02;;;;;;;2.03;100.00;100245.72;10030270;29;20045;-78
2023/11/26 08:31:23;;;;;;;39.80;18.65;;;;;;;2.08;100.00;100249.84;10053994;29;20056;-78
2023/11/26 08:36:30;;;;;;;45.22;20.15;;;;;;;2.17;100.00;100251.22;10041235;29;20068;-78
2023/11/26 08:41:36;;;;;;;45.10;21.38;;;;;;;2.12;100.00;100235.53;10057362;29;20125;-77
2023/11/26 08:46:41;;;;;;;49.05;23.63;;;;;;;2.25;100.00;100234.94;10034172;29;20056;-77
2023/11/26 08:51:46;;;;;;;39.67;18.40;;;;;;;2.24;100.00;100235.88;10061903;29;20069;-77
2023/11/26 08:56:50;;;;;;;44.67;21.80;;;;;;;2.55;100.00;100233.47;10042493;29;20074;-78
2023/11/26 09:01:55;;;;;;;46.97;21.08;;;;;;;2.38;100.00;100230.75;10046312;29;20062;-78
2023/11/26 09:06:58;;;;;;;49.60;24.23;;;;;;;2.61;100.00;100235.81;10042219;29;20080;-78
2023/11/26 09:12:03;;;;;;;35.20;17.60;;;;;;;2.38;100.00;100242.19;10054407;29;20414;-78
2023/11/26 09:17:07;;;;;;;41.78;20.20;;;;;;;2.56;100.00;100229.03;10056934;29;20049;-78
2023/11/26 09:22:10;;;;;;;37.95;19.13;;;;;;;2.48;100.00;100236.47;10041580;29;20056;-78
2023/11/26 09:27:13;;;;;;;33.58;18.50;;;;;;;2.34;100.00;100235.34;10038667;29;20045;-77
2023/11/26 09:32:17;;;;;;;26.27;14.75;;;;;;;2.29;100.00;100226.75;10039319;29;20057;-78
2023/11/26 09:37:21;;;;;;;33.55;17.65;;;;;;;2.58;100.00;100240.41;10060256;29;20069;-76
2023/11/26 09:42:25;;;;;;;31.30;16.52;;;;;;;2.50;100.00;100230.16;10055653;29;20053;-77
2023/11/26 09:47:29;;;;;;;25.73;12.38;;;;;;;2.66;100.00;100234.69;10047322;29;21232;-78
2023/11/26 09:52:33;;;;;;;34.40;17.92;;;;;;;2.83;100.00;100226.75;10026449;29;20049;-78
2023/11/26 09:57:39;;;;;;;26.30;15.23;;;;;;;2.42;100.00;100224.38;10026792;29;21559;-78
2023/11/26 10:02:44;;;;;;;23.88;12.80;;;;;;;2.85;100.00;100211.59;10031497;29;20057;-78
2023/11/26 10:07:52;;;;;;;31.00;13.02;;;;;;;2.93;100.00;100214.72;10032034;29;21168;-78
2023/11/26 10:12:57;;;;;;;22.13;12.68;;;;;;;2.68;100.00;100207.16;10043062;29;20531;-77
2023/11/26 10:18:04;;;;;;;22.63;13.15;;;;;;;2.86;100.00;100202.72;10046686;29;20045;-79
2023/11/26 10:23:10;;;;;;;24.90;12.75;;;;;;;3.10;100.00;100197.94;10043954;29;20611;-77
2023/11/26 10:28:14;;;;;;;24.98;12.60;;;;;;;3.31;100.00;100201.22;10047825;29;20045;-77
2023/11/26 10:33:19;;;;;;;23.85;11.55;;;;;;;3.13;100.00;100205.72;10044521;29;20061;-76
2023/11/26 10:38:25;;;;;;;23.55;11.65;;;;;;;3.49;100.00;100200.22;10037645;29;20053;-78
2023/11/26 10:43:29;;;;;;;21.42;9.48;;;;;;;3.45;100.00;100200.47;10039946;29;20738;-78
2023/11/26 10:48:53;;;;;;;20.65;9.98;;;;;;;3.42;100.00;100200.66;10036672;29;20112;-77
2023/11/26 10:54:01;;;;;;;20.90;8.77;;;;;;;3.41;99.82;100190.97;10012108;29;20053;-78
2023/11/26 10:59:07;;;;;;;19.25;9.65;;;;;;;3.17;100.00;100193.16;10049632;29;20061;-76
2023/11/26 11:04:14;;;;;;;22.65;9.90;;;;;;;3.28;100.00;100188.97;10036196;29;20508;-79
2023/11/26 11:09:24;;;;;;;24.90;9.88;;;;;;;3.80;100.00;100198.53;10039678;29;20085;-79
2023/11/26 11:14:29;;;;;;;18.40;9.25;;;;;;;3.97;98.36;100202.91;10042232;29;20057;-78
2023/11/26 11:19:49;;;;;;;20.25;9.07;;;;;;;3.96;97.95;100203.84;10022707;29;20521;-77
2023/11/26 11:25:05;;;;;;;17.00;8.70;;;;;;;3.59;98.99;100205.88;9998804;29;20053;-78
2023/11/26 11:30:48;;;;;;;18.73;8.82;;;;;;;4.01;97.60;100204.47;10033260;29;20754;-78
2023/11/26 11:35:52;;;;;;;16.08;9.32;;;;;;;3.91;98.58;100198.78;10031687;29;20049;-78
2023/11/26 11:40:59;;;;;;;19.00;7.97;;;;;;;4.07;97.24;100205.91;10042367;29;20049;-75
2023/11/26 11:46:45;;;;;;;16.35;8.13;;;;;;;4.13;96.16;100200.22;10036974;29;20041;-79
2023/11/26 11:51:53;;;;;;;13.38;7.28;;;;;;;4.10;96.35;100205.72;10033295;29;20053;-78
2023/11/26 11:57:00;;;;;;;15.32;7.30;;;;;;;3.92;98.51;100202.31;10015491;29;20096;-78
2023/11/26 12:02:04;;;;;;;15.30;6.22;;;;;;;4.16;96.82;100198.25;10029453;29;20053;-77
2023/11/26 12:07:09;;;;;;;14.35;7.03;;;;;;;3.99;98.02;100200.16;10041181;29;20052;-79
2023/11/26 12:12:18;;;;;;;17.77;7.43;;;;;;;4.48;95.84;100197.34;10031337;29;20052;-79
2023/11/26 12:17:21;;;;;;;20.23;7.82;;;;;;;4.55;94.72;100196.03;10041624;29;20064;-77
2023/11/26 12:22:25;;;;;;;13.35;5.63;;;;;;;4.52;93.76;100185.56;10039209;29;20657;-77
2023/11/26 12:27:32;;;;;;;13.90;6.55;;;;;;;4.27;95.80;100187.00;10030709;29;20057;-78
2023/11/26 12:32:35;;;;;;;15.02;6.20;;;;;;;4.31;96.05;100185.03;10035738;29;20053;-78
2023/11/26 12:37:42;;;;;;;12.50;5.78;;;;;;;4.31;96.51;100177.06;10043870;29;20052;-77
2023/11/26 12:42:45;;;;;;;17.63;7.05;;;;;;;4.16;96.89;100173.47;10027823;29;20406;-77
2023/11/26 12:47:50;;;;;;;15.18;6.75;;;;;;;4.18;96.48;100174.25;10023373;29;20108;-77
2023/11/26 12:52:57;;;;;;;15.20;6.38;;;;;;;4.22;96.17;100170.44;10029615;29;20060;-78
2023/11/26 12:58:00;;;;;;;15.85;5.70;;;;;;;4.15;97.28;100175.28;10004669;29;20054;-77
2023/11/26 13:03:05;;;;;;;15.20;6.43;;;;;;;4.06;98.21;100162.53;10028726;29;20148;-77
2023/11/26 13:08:21;;;;;;;9.70;5.50;;;;;;;4.12;97.83;100162.16;10014184;29;20059;-76
2023/11/26 13:13:27;;;;;;;11.32;6.03;;;;;;;4.15;97.26;100155.81;10030502;29;20762;-75
2023/11/26 13:18:31;;;;;;;9.48;5.57;;;;;;;4.12;98.50;100159.50;10034573;29;20075;-78
2023/11/26 13:23:36;;;;;;;12.32;6.35;;;;;;;4.11;99.15;100155.16;10035661;29;20049;-77
2023/11/26 13:28:39;;;;;;;10.27;5.68;;;;;;;4.31;96.67;100150.47;10033202;29;20720;-78
2023/11/26 13:33:43;;;;;;;16.52;6.65;;;;;;;4.35;97.02;100144.84;10035077;29;20076;-77
2023/11/26 13:38:50;;;;;;;17.20;6.10;;;;;;;4.52;95.33;100146.50;10030702;29;20057;-78
2023/11/26 13:43:55;;;;;;;12.35;6.57;;;;;;;4.38;97.19;100141.16;10027898;29;20049;-77
2023/11/26 13:48:59;;;;;;;18.15;5.60;;;;;;;3.88;99.88;100143.16;10033807;29;20061;-79
2023/11/26 13:54:04;;;;;;;14.32;5.15;;;;;;;4.05;99.39;100144.00;10031771;29;20063;-77
2023/11/26 13:59:09;;;;;;;11.20;6.15;;;;;;;4.39;97.51;100141.09;10033091;29;20047;-77
2023/11/26 14:04:12;;;;;;;14.85;6.93;;;;;;;4.32;98.30;100126.44;10061665;29;20053;-78
2023/11/26 14:09:19;;;;;;;19.80;6.28;;;;;;;4.08;100.00;100133.19;10032683;29;20064;-77
2023/11/26 14:14:22;;;;;;;11.80;5.03;;;;;;;4.18;99.82;100115.75;10009768;29;20061;-78
2023/11/26 14:19:25;;;;;;;14.55;6.30;;;;;;;4.01;100.00;100116.75;10035765;29;20054;-77
2023/11/26 14:24:29;;;;;;;24.52;6.70;;;;;;;4.01;100.00;100124.72;10033957;29;20057;-77
2023/11/26 14:29:32;;;;;;;15.75;5.75;;;;;;;4.01;100.00;100124.72;10067628;29;20054;-78
2023/11/26 14:34:36;;;;;;;15.80;6.32;;;;;;;4.06;100.00;100120.00;10039898;29;20063;-76
2023/11/26 14:39:40;;;;;;;12.57;5.55;;;;;;;4.18;100.00;100132.56;10051671;29;20079;-78
2023/11/26 14:44:43;;;;;;;11.40;5.20;;;;;;;4.40;98.73;100124.16;10032426;29;20102;-77
2023/11/26 14:49:46;;;;;;;13.18;5.75;;;;;;;4.23;99.47;100119.00;10037993;29;20148;-77
2023/11/26 14:54:50;;;;;;;15.68;5.50;;;;;;;4.17;100.00;100128.19;10037134;29;20057;-76
2023/11/26 14:59:54;;;;;;;15.18;6.30;;;;;;;4.43;100.00;100116.97;10044382;29;20461;-77
2023/11/26 15:04:57;;;;;;;12.82;5.75;;;;;;;4.10;100.00;100113.53;10031134;29;20544;-78
2023/11/26 15:10:02;;;;;;;13.00;4.40;;;;;;;3.68;100.00;100128.34;10043168;29;20053;-77
2023/11/26 15:15:07;;;;;;;13.40;6.50;;;;;;;3.98;100.00;100116.03;10042126;29;21262;-77
2023/11/26 15:20:13;;;;;;;22.75;7.10;;;;;;;4.01;100.00;100115.91;10039792;29;20049;-76
2023/11/26 15:25:18;;;;;;;13.07;6.70;;;;;;;3.95;100.00;100117.97;10050915;29;20425;-77
2023/11/26 15:30:21;;;;;;;17.10;7.63;;;;;;;3.98;100.00;100111.63;10043773;29;20048;-77
2023/11/26 15:35:24;;;;;;;14.48;7.35;;;;;;;4.00;100.00;100117.66;10036500;29;20060;-77
2023/11/26 15:40:28;;;;;;;15.45;6.80;;;;;;;3.91;100.00;100104.94;10049819;29;20053;-77
2023/11/26 15:45:31;;;;;;;18.55;8.65;;;;;;;4.25;100.00;100114.47;10035611;29;20061;-77
2023/11/26 15:50:35;;;;;;;18.58;8.80;;;;;;;4.23;100.00;100105.72;10033978;29;20125;-77
2023/11/26 15:55:39;;;;;;;18.50;8.23;;;;;;;3.91;100.00;100119.06;10045093;29;20045;-77
2023/11/26 16:00:42;;;;;;;20.73;11.13;;;;;;;4.23;100.00;100102.19;10038988;29;20053;-77
2023/11/26 16:05:45;;;;;;;17.02;9.43;;;;;;;4.02;100.00;100099.84;10022543;29;20056;-77
2023/11/26 16:10:49;;;;;;;20.00;11.05;;;;;;;4.08;100.00;100101.28;10017109;29;20056;-77
2023/11/26 16:15:52;;;;;;;19.67;10.45;;;;;;;3.93;100.00;100113.69;10024827;29;20053;-78
2023/11/26 16:20:55;;;;;;;23.08;12.45;;;;;;;3.95;100.00;100101.16;10030123;29;20056;-77
2023/11/26 16:26:01;;;;;;;22.90;11.85;;;;;;;3.82;100.00;100105.47;10034602;29;20068;-78
2023/11/26 16:31:05;;;;;;;27.52;11.60;;;;;;;3.86;100.00;100097.22;10043616;29;20050;-77
2023/11/26 16:36:13;;;;;;;21.73;9.95;;;;;;;3.64;100.00;100096.72;10042537;29;20052;-78
2023/11/26 16:41:18;;;;;;;10.48;7.13;;;;;;;3.60;100.00;100096.06;10037154;29;20716;-76
2023/11/26 16:46:21;;;;;;;11.13;5.47;;;;;;;3.28;100.00;100089.88;10047181;29;20056;-79
2023/11/26 16:51:24;;;;;;;13.23;5.47;;;;;;;3.77;100.00;100111.03;10044017;29;20053;-77
2023/11/26 16:56:28;;;;;;;12.40;4.82;;;;;;;3.59;100.00;100096.97;10047355;29;20056;-78
2023/11/26 17:01:31;;;;;;;9.85;4.97;;;;;;;3.46;100.00;100085.38;10044424;29;20053;-78
2023/11/26 17:06:35;;;;;;;8.40;4.45;;;;;;;3.17;100.00;100093.13;10059435;29;20061;-79
2023/11/26 17:11:39;;;;;;;8.98;6.43;;;;;;;3.68;100.00;100091.16;10065161;29;20058;-81
2023/11/26 17:16:42;;;;;;;14.93;6.97;;;;;;;3.77;100.00;100087.13;10065855;29;20049;-79
2023/11/26 17:21:46;;;;;;;16.08;8.18;;;;;;;3.95;100.00;100087.88;10043288;29;20055;-79
2023/11/26 17:26:50;;;;;;;18.02;9.05;;;;;;;4.09;100.00;100087.91;10057523;29;20097;-80
2023/11/26 17:31:54;;;;;;;19.70;9.82;;;;;;;4.16;100.00;100086.59;10065916;29;20984;-79
2023/11/26 17:36:57;;;;;;;17.23;10.57;;;;;;;3.97;100.00;100091.28;10065245;29;20082;-79
2023/11/26 17:42:02;;;;;;;19.45;12.02;;;;;;;3.98;100.00;100090.34;10059719;29;20064;-79
2023/11/26 17:47:07;;;;;;;23.52;12.23;;;;;;;4.17;100.00;100088.31;10053756;29;20053;-78
2023/11/26 17:52:10;;;;;;;20.60;11.70;;;;;;;4.18;100.00;100084.69;10055281;29;20060;-79
2023/11/26 17:57:17;;;;;;;18.92;11.80;;;;;;;4.13;100.00;100089.44;10067371;29;20053;-79
2023/11/26 18:02:20;;;;;;;20.88;12.27;;;;;;;3.94;100.00;100079.03;10064969;29;20053;-78
2023/11/26 18:07:24;;;;;;;18.65;12.00;;;;;;;3.93;100.00;100084.44;10053256;29;20056;-79
2023/11/26 18:12:28;;;;;;;16.75;11.25;;;;;;;4.07;100.00;100075.66;10048683;29;20056;-78
2023/11/26 18:17:31;;;;;;;20.17;11.10;;;;;;;3.93;100.00;100079.97;10052939;29;20048;-78
2023/11/26 18:22:35;;;;;;;16.45;10.32;;;;;;;3.85;100.00;100078.72;10029613;29;20057;-79
2023/11/26 18:27:39;;;;;;;18.05;10.18;;;;;;;3.67;100.00;100067.34;10040061;29;20056;-78
2023/11/26 18:32:42;;;;;;;23.73;10.75;;;;;;;3.91;100.00;100065.06;10061808;29;20106;-79
2023/11/26 18:37:45;;;;;;;21.48;10.15;;;;;;;3.71;100.00;100060.91;10070753;29;20048;-79
2023/11/26 18:42:51;;;;;;;18.63;11.02;;;;;;;3.85;100.00;100060.97;10056373;29;20049;-79
2023/11/26 18:47:55;;;;;;;17.85;10.55;;;;;;;3.88;100.00;100065.25;10069976;29;20064;-78
2023/11/26 18:52:58;;;;;;;20.52;9.80;;;;;;;3.65;100.00;100058.63;10062102;29;20122;-78
2023/11/26 18:58:02;;;;;;;20.00;9.50;;;;;;;3.56;100.00;100061.78;10078439;29;20117;-80
2023/11/26 19:03:06;;;;;;;21.85;9.65;;;;;;;3.83;100.00;100060.19;10079445;29;20053;-79
2023/11/26 19:08:10;;;;;;;16.48;10.30;;;;;;;4.07;100.00;100055.25;10067579;29;20049;-79
2023/11/26 19:13:14;;;;;;;20.13;11.55;;;;;;;4.04;100.00;100055.44;10061596;29;20083;-78
2023/11/26 19:18:17;;;;;;;24.13;13.52;;;;;;;4.04;100.00;100068.72;10067497;29;20177;-78
2023/11/26 19:23:20;;;;;;;22.05;14.15;;;;;;;3.72;100.00;100052.84;10066573;29;20349;-79
2023/11/26 19:28:26;;;;;;;19.02;12.85;;;;;;;3.77;100.00;100057.91;10069384;29;20067;-80
2023/11/26 19:33:29;;;;;;;21.17;11.85;;;;;;;3.66;100.00;100053.19;10074282;29;20116;-80
2023/11/26 19:38:32;;;;;;;26.90;13.60;;;;;;;3.78;100.00;100056.94;10069389;29;20761;-79
2023/11/26 19:43:38;;;;;;;19.60;12.50;;;;;;;3.63;100.00;100049.88;10074915;29;20052;-78
2023/11/26 19:48:45;;;;;;;15.60;9.07;;;;;;;3.75;100.00;100059.78;10076624;29;20078;-79
2023/11/26 19:53:49;;;;;;;24.95;14.38;;;;;;;3.75;100.00;100051.81;10069153;29;20632;-80
2023/11/26 19:58:54;;;;;;;21.23;12.85;;;;;;;3.83;100.00;100038.94;10070507;29;20081;-79
2023/11/26 20:03:57;;;;;;;23.40;13.85;;;;;;;3.68;100.00;100035.38;10072289;29;20072;-79
2023/11/26 20:09:01;;;;;;;19.05;11.20;;;;;;;3.59;100.00;100041.19;10061127;29;20072;-78
2023/11/26 20:14:05;;;;;;;21.80;13.43;;;;;;;3.92;100.00;100026.91;10057407;29;20049;-78
2023/11/26 20:19:08;;;;;;;22.35;14.38;;;;;;;3.94;100.00;100033.00;10064791;29;20060;-78
2023/11/26 20:24:16;;;;;;;29.90;16.83;;;;;;;3.79;100.00;100020.63;10075159;29;20109;-80
2023/11/26 20:29:27;;;;;;;23.95;13.63;;;;;;;3.48;100.00;100014.41;10056667;29;20052;-78
2023/11/26 20:34:30;;;;;;;33.40;16.33;;;;;;;3.73;100.00;100009.41;10064465;29;20052;-78
2023/11/26 20:39:33;;;;;;;33.58;18.50;;;;;;;3.79;100.00;100008.19;10075410;29;20060;-77
2023/11/26 20:44:43;;;;;;;37.30;21.13;;;;;;;3.91;100.00;100012.75;10072080;29;20045;-78
2023/11/26 20:49:49;;;;;;;39.60;21.63;;;;;;;3.92;100.00;100002.97;10075546;29;20954;-78
2023/11/26 20:54:52;;;;;;;30.95;17.52;;;;;;;3.62;100.00;100005.63;10074798;29;20059;-78
2023/11/26 20:59:56;;;;;;;39.95;18.48;;;;;;;3.81;100.00;100000.09;10077595;29;20053;-78
2023/11/26 21:04:59;;;;;;;33.42;18.73;;;;;;;3.74;100.00;100007.59;10060916;29;20124;-78
2023/11/26 21:10:03;;;;;;;24.98;13.68;;;;;;;3.59;100.00;99993.41;10038911;29;20670;-79
2023/11/26 21:15:10;;;;;;;32.13;17.50;;;;;;;3.82;100.00;99988.56;10060763;29;20692;-78
2023/11/26 21:20:13;;;;;;;34.53;13.77;;;;;;;3.46;100.00;99989.75;10037858;29;20120;-77
2023/11/26 21:25:16;;;;;;;30.58;16.58;;;;;;;3.52;100.00;99978.78;10065946;29;20061;-79
2023/11/26 21:30:21;;;;;;;24.25;15.55;;;;;;;3.54;100.00;99979.56;10080117;29;20061;-79
2023/11/26 21:35:27;;;;;;;25.67;12.80;;;;;;;3.55;100.00;99980.41;10075590;29;20142;-78
2023/11/26 21:40:30;;;;;;;23.00;14.27;;;;;;;3.34;100.00;99970.06;10075007;29;20056;-80
2023/11/26 21:45:35;;;;;;;26.30;12.45;;;;;;;3.69;100.00;99957.38;10061686;29;20341;-80
2023/11/26 21:50:38;;;;;;;24.30;12.82;;;;;;;3.51;100.00;99963.78;10050593;29;20055;-81
2023/11/26 21:55:41;;;;;;;22.73;12.23;;;;;;;3.57;100.00;99952.81;10070879;29;20116;-82
2023/11/26 22:00:46;;;;;;;27.58;13.90;;;;;;;3.71;100.00;99942.22;10047442;29;20045;-81
2023/11/26 22:05:49;;;;;;;23.23;10.63;;;;;;;3.62;100.00;99937.47;10070100;29;20059;-81
2023/11/26 22:10:52;;;;;;;17.48;9.38;;;;;;;3.70;100.00;99935.22;10064026;29;20125;-80
2023/11/26 22:15:57;;;;;;;21.08;10.40;;;;;;;3.63;100.00;99931.19;10066344;29;20056;-81
2023/11/26 22:21:00;;;;;;;22.20;11.27;;;;;;;3.68;100.00;99934.44;10069574;29;20056;-80
2023/11/26 22:26:03;;;;;;;19.42;11.40;;;;;;;3.82;100.00;99932.75;10077261;29;20077;-80
2023/11/26 22:31:08;;;;;;;24.92;11.18;;;;;;;3.89;100.00;99926.97;10054105;29;20054;-79
2023/11/26 22:36:19;;;;;;;21.42;12.23;;;;;;;3.91;100.00;99929.53;10084583;29;20078;-79
2023/11/26 22:41:23;;;;;;;19.10;11.82;;;;;;;3.72;100.00;99925.31;10078041;29;20109;-79
2023/11/26 22:46:29;;;;;;;21.17;12.10;;;;;;;3.97;100.00;99915.03;10086953;29;20076;-79
2023/11/26 22:51:33;;;;;;;21.10;12.40;;;;;;;3.99;100.00;99921.09;10076407;29;20195;-80
2023/11/26 22:56:36;;;;;;;25.17;13.68;;;;;;;3.92;100.00;99915.28;10081156;29;20078;-81
2023/11/26 23:01:40;;;;;;;25.70;13.02;;;;;;;3.67;100.00;99918.56;10068446;29;20049;-81
2023/11/26 23:06:44;;;;;;;29.52;13.55;;;;;;;3.94;100.00;99910.75;10082800;29;20055;-80
2023/11/26 23:11:47;;;;;;;28.95;13.77;;;;;;;4.00;100.00;99909.50;10072236;29;20048;-81